Share

Beaver Dam, KY (42320)

1:49 AM CDT on April 25, 2014 (GMT -0500)
West side of Oak Hill Cemetery-dchsr (KKYLIVER2) Elev 420 ft | 37.49 °N, 87.13 °W | Change Station

Current weather conditions updated 0 second ago

Rain
Rain
61.2 °F
Feels Like 61.2 °F
N
0.0
Wind Variable Wind from SE
Gusts 0.0 mph
Sunrise 5:59 AM
Sunset 7:31 PM
Moon Waning Crescent

Today is forecast to be Cooler than yesterday. A few morning showers.

Pressure 29.65 in
Visibility 10.0 miles
Clouds Mostly Cloudy 2400 ft
Mostly Cloudy 3200 ft
Overcast 3900 ft
Dew Point 58 °F
Humidity 88%
Rainfall 0.02 in
Snow Depth Not available.
UV 0 out of 16
Pollen 9.60 out of 12
Air Quality Not available.
Flu Activity Sporadic
METAR K2I0 250635Z AUTO 18003KT 10SM BKN024 BKN032 OVC039 17/16 A2965 RMK AO2 P0006 T01700163

More Conditions Fewer Conditions

Pressure 29.65 in
Visibility 10.0 miles
Clouds Mostly Cloudy 2400 ft
Mostly Cloudy 3200 ft
Overcast 3900 ft
Dew Point 58 °F
Humidity 88%
Rainfall 0.02 in
Snow Depth Not available.
UV 0 out of 16
Pollen 9.60 out of 12
Air Quality Not available.
Flu Activity Sporadic
METAR K2I0 250635Z AUTO 18003KT 10SM BKN024 BKN032 OVC039 17/16 A2965 RMK AO2 P0006 T01700163

More Conditions Fewer Conditions

10-Day Weather Forecast

Almanac

Astronomy

Apr. 25, 2014 Rise Set
Actual Time 5:59 AM CDT 7:31 PM CDT
Civil Twilight 5:32 AM CDT 7:59 PM CDT
Nautical Twilight 4:59 AM CDT 8:32 PM CDT
Astronomical Twilight 4:24 AM CDT 9:07 PM CDT
Moon 3:42 AM CDT 3:58 PM CDT
Length of Visible Light 14h 27m
Length of Day
13h 31m
Tomorrow will be 2m 10s longer.
Waning Crescent, 19% of the Moon is Illuminated
Today
Waning Crescent
Apr 29
New
May 6
First Quarter
May 14
Full
May 21
Last Quarter

Today's Extremes

State Highs State Lows

Community

  • Deer in evening light
    Deer in evening light
  • Critter
    Critter
  • Jone Runs Falls
    Jone Runs Falls
  • Easter in Shenandoah National Park
    Easter in Shenandoah National Park
  • Sunset at Apalachicola Bay, Florida
    Sunset at Apalachicola Bay, Florida

WunderPhotos

Upload Photos

1,704,870 photos uploaded!

WunderBlogs® & News

Nearby

Snow Depth

Station Depth Elevation
No new snow has been reported.

Coastal Water Temperatures

Place Temperature
No Stations Reporting

Earthquake Activity

City Distance Mag. Time & Date
No recent earthquake activity has been reported nearby.
Minimum magnitude displayed is 2.5.

Nearby Weather Stations

Station Location Temp. Dew Point Humidity Wind Precip. Elev Updated Type
West side of Oak Hill Cemetery-dchsr, Livermore, KY 61.2 °F 58 °F 88% SE  at  0.0 mph 0.02 in / hr 420 ft 1:49 AM CDT Rapid Fire
RAWS GREENVILLE KY, Greenville, KY 65 °F 59 °F 82% SE  at  6 mph 0.00 in / hr 551 ft 1:15 AM CDT MADIS

Show More Stations Show Fewer Stations

What do you think?

We're not finished. Please let us know what you like, what you don't like, and what you are still missing.